sensor_id;sensor_type;location;lat;lon;timestamp;pressure;altitude;pressure_sealevel;temperature;humidity
18987;BME280;9627;59.236;18.142;2023-01-23T00:02:11;103403.56;;;-3.74;100.00
18987;BME280;9627;59.236;18.142;2023-01-23T00:04:38;103396.78;;;-3.83;100.00
18987;BME280;9627;59.236;18.142;2023-01-23T00:07:05;103395.94;;;-3.85;100.00
18987;BME280;9627;59.236;18.142;2023-01-23T00:09:32;103397.63;;;-3.83;100.00
18987;BME280;9627;59.236;18.142;2023-01-23T00:11:59;103393.22;;;-3.76;100.00
18987;BME280;9627;59.236;18.142;2023-01-23T00:14:26;103391.44;;;-3.76;100.00
18987;BME280;9627;59.236;18.142;2023-01-23T00:16:53;103389.81;;;-3.80;100.00
18987;BME280;9627;59.236;18.142;2023-01-23T00:19:22;103390.59;;;-3.76;100.00
18987;BME280;9627;59.236;18.142;2023-01-23T00:21:49;103388.97;;;-3.82;100.00
18987;BME280;9627;59.236;18.142;2023-01-23T00:24:16;103394.06;;;-3.77;100.00
18987;BME280;9627;59.236;18.142;2023-01-23T00:26:43;103382.81;;;-3.76;100.00
18987;BME280;9627;59.236;18.142;2023-01-23T00:29:10;103381.88;;;-3.73;100.00
18987;BME280;9627;59.236;18.142;2023-01-23T00:31:39;103383.66;;;-3.76;100.00
18987;BME280;9627;59.236;18.142;2023-01-23T00:34:09;103389.66;;;-3.72;100.00
18987;BME280;9627;59.236;18.142;2023-01-23T00:36:38;103390.53;;;-3.73;100.00
18987;BME280;9627;59.236;18.142;2023-01-23T00:39:06;103387.75;;;-3.64;100.00
18987;BME280;9627;59.236;18.142;2023-01-23T00:41:34;103380.84;;;-3.63;100.00
18987;BME280;9627;59.236;18.142;2023-01-23T00:44:01;103380.84;;;-3.63;100.00
18987;BME280;9627;59.236;18.142;2023-01-23T00:46:28;103377.44;;;-3.67;100.00
18987;BME280;9627;59.236;18.142;2023-01-23T00:48:55;103387.06;;;-3.72;100.00
18987;BME280;9627;59.236;18.142;2023-01-23T00:51:22;103382.03;;;-3.80;100.00
18987;BME280;9627;59.236;18.142;2023-01-23T00:53:51;103378.63;;;-3.85;100.00
18987;BME280;9627;59.236;18.142;2023-01-23T00:56:18;103388.28;;;-3.91;100.00
18987;BME280;9627;59.236;18.142;2023-01-23T00:58:44;103383.94;;;-3.91;100.00
18987;BME280;9627;59.236;18.142;2023-01-23T01:01:12;103395.13;;;-3.86;100.00
18987;BME280;9627;59.236;18.142;2023-01-23T01:03:39;103388.16;;;-3.84;100.00
18987;BME280;9627;59.236;18.142;2023-01-23T01:06:06;103385.31;;;-3.71;100.00
18987;BME280;9627;59.236;18.142;2023-01-23T01:08:33;103384.47;;;-3.73;100.00
18987;BME280;9627;59.236;18.142;2023-01-23T01:11:02;103389.78;;;-3.78;100.00
18987;BME280;9627;59.236;18.142;2023-01-23T01:13:30;103391.47;;;-3.77;100.00
18987;BME280;9627;59.236;18.142;2023-01-23T01:15:57;103380.19;;;-3.74;100.00
18987;BME280;9627;59.236;18.142;2023-01-23T01:18:26;103375.88;;;-3.76;100.00
18987;BME280;9627;59.236;18.142;2023-01-23T01:20:53;103371.50;;;-3.73;100.00
18987;BME280;9627;59.236;18.142;2023-01-23T01:23:21;103371.50;;;-3.73;100.00
18987;BME280;9627;59.236;18.142;2023-01-23T01:25:48;103361.94;;;-3.71;100.00
18987;BME280;9627;59.236;18.142;2023-01-23T01:28:16;103365.47;;;-3.74;100.00
18987;BME280;9627;59.236;18.142;2023-01-23T01:30:43;103372.19;;;-3.62;100.00
18987;BME280;9627;59.236;18.142;2023-01-23T01:33:10;103364.38;;;-3.62;100.00
18987;BME280;9627;59.236;18.142;2023-01-23T01:35:38;103369.66;;;-3.67;100.00
18987;BME280;9627;59.236;18.142;2023-01-23T01:38:05;103365.47;;;-3.74;100.00
18987;BME280;9627;59.236;18.142;2023-01-23T01:40:34;103362.09;;;-3.78;100.00
18987;BME280;9627;59.236;18.142;2023-01-23T01:43:02;103363.03;;;-3.82;100.00
18987;BME280;9627;59.236;18.142;2023-01-23T01:48:17;103360.44;;;-3.83;100.00
18987;BME280;9627;59.236;18.142;2023-01-23T01:50:47;103362.13;;;-3.81;100.00
18987;BME280;9627;59.236;18.142;2023-01-23T01:53:14;103356.84;;;-3.76;100.00
18987;BME280;9627;59.236;18.142;2023-01-23T01:55:41;103355.25;;;-3.82;100.00
18987;BME280;9627;59.236;18.142;2023-01-23T01:58:08;103359.41;;;-3.74;100.00
18987;BME280;9627;59.236;18.142;2023-01-23T02:00:35;103363.75;;;-3.75;100.00
18987;BME280;9627;59.236;18.142;2023-01-23T02:03:02;103361.13;;;-3.72;100.00
18987;BME280;9627;59.236;18.142;2023-01-23T02:05:31;103355.06;;;-3.72;100.00
18987;BME280;9627;59.236;18.142;2023-01-23T02:08:01;103355.06;;;-3.72;100.00
18987;BME280;9627;59.236;18.142;2023-01-23T02:10:29;103356.91;;;-3.78;100.00
18987;BME280;9627;59.236;18.142;2023-01-23T02:15:38;103362.19;;;-3.84;100.00
18987;BME280;9627;59.236;18.142;2023-01-23T02:18:05;103361.38;;;-3.86;100.00
18987;BME280;9627;59.236;18.142;2023-01-23T02:20:34;103362.28;;;-3.88;100.00
18987;BME280;9627;59.236;18.142;2023-01-23T02:23:03;103364.03;;;-3.90;100.00
18987;BME280;9627;59.236;18.142;2023-01-23T02:25:35;103361.50;;;-3.93;100.00
18987;BME280;9627;59.236;18.142;2023-01-23T02:28:05;103356.28;;;-3.92;100.00
18987;BME280;9627;59.236;18.142;2023-01-23T02:30:34;103357.97;;;-3.91;100.00
18987;BME280;9627;59.236;18.142;2023-01-23T02:33:08;103353.75;;;-3.96;100.00
18987;BME280;9627;59.236;18.142;2023-01-23T02:35:35;103354.66;;;-3.97;100.00
18987;BME280;9627;59.236;18.142;2023-01-23T02:38:03;103361.50;;;-3.95;100.00
18987;BME280;9627;59.236;18.142;2023-01-23T02:40:31;103369.41;;;-3.99;100.00
18987;BME280;9627;59.236;18.142;2023-01-23T02:42:58;103366.81;;;-3.99;100.00
18987;BME280;9627;59.236;18.142;2023-01-23T02:45:27;103361.56;;;-3.96;100.00
18987;BME280;9627;59.236;18.142;2023-01-23T02:47:55;103365.06;;;-3.99;100.00
18987;BME280;9627;59.236;18.142;2023-01-23T02:50:22;103364.28;;;-4.04;100.00
18987;BME280;9627;59.236;18.142;2023-01-23T02:52:49;103353.88;;;-4.02;100.00
18987;BME280;9627;59.236;18.142;2023-01-23T02:55:18;103349.78;;;-4.14;100.00
18987;BME280;9627;59.236;18.142;2023-01-23T02:57:46;103360.13;;;-4.12;100.00
18987;BME280;9627;59.236;18.142;2023-01-23T03:00:13;103359.19;;;-4.10;100.00
18987;BME280;9627;59.236;18.142;2023-01-23T03:02:43;103361.69;;;-4.04;100.00
18987;BME280;9627;59.236;18.142;2023-01-23T03:05:10;103361.72;;;-4.05;100.00
18987;BME280;9627;59.236;18.142;2023-01-23T03:07:37;103365.25;;;-4.09;100.00
18987;BME280;9627;59.236;18.142;2023-01-23T03:10:05;103357.56;;;-4.14;100.00
18987;BME280;9627;59.236;18.142;2023-01-23T03:12:33;103355.09;;;-4.20;100.00
18987;BME280;9627;59.236;18.142;2023-01-23T03:15:00;103352.34;;;-4.12;100.00
18987;BME280;9627;59.236;18.142;2023-01-23T03:17:27;103344.47;;;-4.06;100.00
18987;BME280;9627;59.236;18.142;2023-01-23T03:19:56;103345.47;;;-4.15;100.00
18987;BME280;9627;59.236;18.142;2023-01-23T03:22:23;103332.59;;;-4.21;100.00
18987;BME280;9627;59.236;18.142;2023-01-23T03:24:50;103327.34;;;-4.16;100.00
18987;BME280;9627;59.236;18.142;2023-01-23T03:27:17;103324.78;;;-4.19;100.00
18987;BME280;9627;59.236;18.142;2023-01-23T03:29:44;103322.06;;;-4.12;100.00
18987;BME280;9627;59.236;18.142;2023-01-23T03:32:28;103319.56;;;-4.16;100.00
18987;BME280;9627;59.236;18.142;2023-01-23T03:34:57;103318.69;;;-4.17;100.00
18987;BME280;9627;59.236;18.142;2023-01-23T03:37:24;103319.59;;;-4.19;100.00
18987;BME280;9627;59.236;18.142;2023-01-23T03:39:51;103326.41;;;-4.12;100.00
18987;BME280;9627;59.236;18.142;2023-01-23T03:42:35;103336.03;;;-4.19;100.00
18987;BME280;9627;59.236;18.142;2023-01-23T03:45:02;103332.53;;;-4.16;100.00
18987;BME280;9627;59.236;18.142;2023-01-23T03:47:29;103333.50;;;-4.22;100.00
18987;BME280;9627;59.236;18.142;2023-01-23T03:49:58;103330.94;;;-4.25;100.00
18987;BME280;9627;59.236;18.142;2023-01-23T03:52:25;103337.16;;;-4.33;100.00
18987;BME280;9627;59.236;18.142;2023-01-23T03:54:52;103325.72;;;-4.22;100.00
18987;BME280;9627;59.236;18.142;2023-01-23T03:57:19;103318.19;;;-4.35;100.00
18987;BME280;9627;59.236;18.142;2023-01-23T03:59:46;103313.88;;;-4.38;100.00
18987;BME280;9627;59.236;18.142;2023-01-23T04:02:13;103313.06;;;-4.40;100.00
18987;BME280;9627;59.236;18.142;2023-01-23T04:04:40;103319.41;;;-4.56;100.00
18987;BME280;9627;59.236;18.142;2023-01-23T04:07:09;103317.56;;;-4.51;100.00
18987;BME280;9627;59.236;18.142;2023-01-23T04:09:36;103318.38;;;-4.47;100.00
18987;BME280;9627;59.236;18.142;2023-01-23T04:12:03;103314.09;;;-4.50;100.00
18987;BME280;9627;59.236;18.142;2023-01-23T04:14:30;103314.09;;;-4.48;100.00
18987;BME280;9627;59.236;18.142;2023-01-23T04:17:01;103321.91;;;-4.51;100.00
18987;BME280;9627;59.236;18.142;2023-01-23T04:19:28;103315.88;;;-4.52;100.00
18987;BME280;9627;59.236;18.142;2023-01-23T04:21:55;103325.41;;;-4.54;100.00
18987;BME280;9627;59.236;18.142;2023-01-23T04:24:24;103322.03;;;-4.59;100.00
18987;BME280;9627;59.236;18.142;2023-01-23T04:26:51;103324.53;;;-4.53;100.00
18987;BME280;9627;59.236;18.142;2023-01-23T04:29:18;103327.03;;;-4.50;100.00
18987;BME280;9627;59.236;18.142;2023-01-23T04:31:45;103317.50;;;-4.46;100.00
18987;BME280;9627;59.236;18.142;2023-01-23T04:34:12;103319.25;;;-4.47;100.00
18987;BME280;9627;59.236;18.142;2023-01-23T04:36:39;103331.41;;;-4.50;100.00
18987;BME280;9627;59.236;18.142;2023-01-23T04:39:06;103323.66;;;-4.52;100.00
18987;BME280;9627;59.236;18.142;2023-01-23T04:41:35;103311.59;;;-4.54;100.00
18987;BME280;9627;59.236;18.142;2023-01-23T04:44:02;103322.13;;;-4.63;100.00
18987;BME280;9627;59.236;18.142;2023-01-23T04:46:43;103325.41;;;-4.55;100.00
18987;BME280;9627;59.236;18.142;2023-01-23T04:49:10;103328.94;;;-4.59;100.00
18987;BME280;9627;59.236;18.142;2023-01-23T04:51:37;103329.69;;;-4.53;100.00
18987;BME280;9627;59.236;18.142;2023-01-23T04:54:04;103332.22;;;-4.48;100.00
18987;BME280;9627;59.236;18.142;2023-01-23T04:56:31;103345.41;;;-4.62;100.00
18987;BME280;9627;59.236;18.142;2023-01-23T04:58:59;103342.00;;;-4.64;100.00
18987;BME280;9627;59.236;18.142;2023-01-23T05:01:26;103335.06;;;-4.62;100.00
18987;BME280;9627;59.236;18.142;2023-01-23T05:03:53;103335.25;;;-4.76;100.00
18987;BME280;9627;59.236;18.142;2023-01-23T05:06:20;103345.47;;;-4.66;100.00
18987;BME280;9627;59.236;18.142;2023-01-23T05:08:47;103336.88;;;-4.68;100.00
18987;BME280;9627;59.236;18.142;2023-01-23T05:11:14;103341.31;;;-4.77;100.00
18987;BME280;9627;59.236;18.142;2023-01-23T05:13:42;103342.16;;;-4.73;100.00
18987;BME280;9627;59.236;18.142;2023-01-23T05:16:11;103342.91;;;-4.68;100.00
18987;BME280;9627;59.236;18.142;2023-01-23T05:18:38;103339.59;;;-4.76;100.00
18987;BME280;9627;59.236;18.142;2023-01-23T05:21:05;103343.19;;;-4.85;100.00
18987;BME280;9627;59.236;18.142;2023-01-23T05:23:32;103346.59;;;-4.81;100.00
18987;BME280;9627;59.236;18.142;2023-01-23T05:25:59;103340.53;;;-4.82;100.00
18987;BME280;9627;59.236;18.142;2023-01-23T05:28:27;103344.88;;;-4.84;100.00
18987;BME280;9627;59.236;18.142;2023-01-23T05:30:54;103341.44;;;-4.83;100.00
18987;BME280;9627;59.236;18.142;2023-01-23T05:33:23;103342.06;;;-4.68;100.00
18987;BME280;9627;59.236;18.142;2023-01-23T05:35:50;103343.94;;;-4.78;100.00
18987;BME280;9627;59.236;18.142;2023-01-23T05:38:17;103347.41;;;-4.79;100.00
18987;BME280;9627;59.236;18.142;2023-01-23T05:40:44;103320.69;;;-4.83;100.00
18987;BME280;9627;59.236;18.142;2023-01-23T05:43:11;103334.25;;;-4.65;100.00
18987;BME280;9627;59.236;18.142;2023-01-23T05:45:39;103332.59;;;-4.69;100.00
18987;BME280;9627;59.236;18.142;2023-01-23T05:48:06;103333.53;;;-4.75;100.00
18987;BME280;9627;59.236;18.142;2023-01-23T05:50:35;103352.75;;;-4.90;100.00
18987;BME280;9627;59.236;18.142;2023-01-23T05:53:02;103351.03;;;-4.89;100.00
18987;BME280;9627;59.236;18.142;2023-01-23T05:55:29;103350.19;;;-4.91;100.00
18987;BME280;9627;59.236;18.142;2023-01-23T05:57:56;103355.38;;;-4.93;100.00
18987;BME280;9627;59.236;18.142;2023-01-23T06:00:23;103361.38;;;-4.89;100.00
18987;BME280;9627;59.236;18.142;2023-01-23T06:02:50;103355.41;;;-4.96;100.00
18987;BME280;9627;59.236;18.142;2023-01-23T06:05:17;103359.66;;;-4.89;100.00
18987;BME280;9627;59.236;18.142;2023-01-23T06:07:46;103353.53;;;-4.83;100.00
18987;BME280;9627;59.236;18.142;2023-01-23T06:12:40;103352.53;;;-4.76;100.00
18987;BME280;9627;59.236;18.142;2023-01-23T06:15:08;103356.13;;;-4.83;100.00
18987;BME280;9627;59.236;18.142;2023-01-23T06:17:35;103351.78;;;-4.83;100.00
18987;BME280;9627;59.236;18.142;2023-01-23T06:20:02;103345.91;;;-4.92;100.00
18987;BME280;9627;59.236;18.142;2023-01-23T06:22:30;103345.22;;;-5.06;100.00
18987;BME280;9627;59.236;18.142;2023-01-23T06:24:59;103334.75;;;-4.99;100.00
18987;BME280;9627;59.236;18.142;2023-01-23T06:27:28;103339.03;;;-4.96;100.00
18987;BME280;9627;59.236;18.142;2023-01-23T06:29:55;103353.75;;;-4.98;100.00
18987;BME280;9627;59.236;18.142;2023-01-23T06:32:22;103349.47;;;-5.01;100.00
18987;BME280;9627;59.236;18.142;2023-01-23T06:34:49;103344.22;;;-4.96;100.00
18987;BME280;9627;59.236;18.142;2023-01-23T06:37:16;103347.69;;;-4.97;100.00
18987;BME280;9627;59.236;18.142;2023-01-23T06:39:43;103354.78;;;-5.10;100.00
18987;BME280;9627;59.236;18.142;2023-01-23T06:42:11;103352.22;;;-5.11;100.00
18987;BME280;9627;59.236;18.142;2023-01-23T06:44:39;103354.88;;;-5.17;100.00
18987;BME280;9627;59.236;18.142;2023-01-23T06:47:07;103346.22;;;-5.15;100.00
18987;BME280;9627;59.236;18.142;2023-01-23T06:49:34;103341.84;;;-5.11;100.00
18987;BME280;9627;59.236;18.142;2023-01-23T06:52:01;103349.50;;;-5.05;100.00
18987;BME280;9627;59.236;18.142;2023-01-23T06:54:28;103362.56;;;-5.13;100.00
18987;BME280;9627;59.236;18.142;2023-01-23T06:56:55;103372.03;;;-5.07;100.00
18987;BME280;9627;59.236;18.142;2023-01-23T06:59:24;103373.88;;;-5.17;100.00
18987;BME280;9627;59.236;18.142;2023-01-23T07:01:51;103369.53;;;-5.16;100.00
18987;BME280;9627;59.236;18.142;2023-01-23T07:04:18;103363.44;;;-5.12;100.00
18987;BME280;9627;59.236;18.142;2023-01-23T07:06:45;103365.13;;;-5.10;100.00
18987;BME280;9627;59.236;18.142;2023-01-23T07:09:12;103368.53;;;-5.06;100.00
18987;BME280;9627;59.236;18.142;2023-01-23T07:11:39;103377.22;;;-5.07;100.00
18987;BME280;9627;59.236;18.142;2023-01-23T07:14:06;103380.72;;;-5.11;100.00
18987;BME280;9627;59.236;18.142;2023-01-23T07:16:35;103380.56;;;-5.02;100.00
18987;BME280;9627;59.236;18.142;2023-01-23T07:19:02;103378.91;;;-5.06;100.00
18987;BME280;9627;59.236;18.142;2023-01-23T07:21:29;103371.00;;;-4.97;100.00
18987;BME280;9627;59.236;18.142;2023-01-23T07:23:56;103357.19;;;-4.99;100.00
18987;BME280;9627;59.236;18.142;2023-01-23T07:26:23;103359.78;;;-4.99;100.00
18987;BME280;9627;59.236;18.142;2023-01-23T07:28:50;103369.16;;;-4.89;100.00
18987;BME280;9627;59.236;18.142;2023-01-23T07:31:18;103368.31;;;-4.91;100.00
18987;BME280;9627;59.236;18.142;2023-01-23T07:33:46;103370.16;;;-4.98;100.00
18987;BME280;9627;59.236;18.142;2023-01-23T07:36:13;103366.78;;;-5.04;100.00
18987;BME280;9627;59.236;18.142;2023-01-23T07:38:42;103369.38;;;-5.04;100.00
18987;BME280;9627;59.236;18.142;2023-01-23T07:41:09;103371.91;;;-5.00;100.00
18987;BME280;9627;59.236;18.142;2023-01-23T07:43:36;103387.44;;;-4.98;100.00
18987;BME280;9627;59.236;18.142;2023-01-23T07:46:03;103387.44;;;-4.98;100.00
18987;BME280;9627;59.236;18.142;2023-01-23T07:48:31;103389.19;;;-5.00;100.00
18987;BME280;9627;59.236;18.142;2023-01-23T07:51:02;103374.34;;;-4.89;100.00
18987;BME280;9627;59.236;18.142;2023-01-23T07:53:29;103377.72;;;-4.84;100.00
18987;BME280;9627;59.236;18.142;2023-01-23T07:55:56;103386.44;;;-4.88;100.00
18987;BME280;9627;59.236;18.142;2023-01-23T07:58:23;103390.66;;;-4.84;100.00
18987;BME280;9627;59.236;18.142;2023-01-23T08:00:50;103395.16;;;-4.95;100.00
18987;BME280;9627;59.236;18.142;2023-01-23T08:03:17;103395.22;;;-5.01;100.00
18987;BME280;9627;59.236;18.142;2023-01-23T08:05:46;103399.63;;;-5.06;100.00
18987;BME280;9627;59.236;18.142;2023-01-23T08:08:15;103400.50;;;-5.06;100.00
18987;BME280;9627;59.236;18.142;2023-01-23T08:10:42;103397.09;;;-5.11;100.00
18987;BME280;9627;59.236;18.142;2023-01-23T08:13:09;103404.78;;;-5.05;100.00
18987;BME280;9627;59.236;18.142;2023-01-23T08:15:37;103406.31;;;-4.90;100.00
18987;BME280;9627;59.236;18.142;2023-01-23T08:18:04;103408.88;;;-4.87;100.00
18987;BME280;9627;59.236;18.142;2023-01-23T08:20:31;103401.00;;;-4.81;100.00
18987;BME280;9627;59.236;18.142;2023-01-23T08:22:58;103404.63;;;-4.93;100.00
18987;BME280;9627;59.236;18.142;2023-01-23T08:25:28;103401.31;;;-5.02;100.00
18987;BME280;9627;59.236;18.142;2023-01-23T08:27:55;103406.56;;;-5.08;100.00
18987;BME280;9627;59.236;18.142;2023-01-23T08:30:22;103409.28;;;-5.17;100.00
18987;BME280;9627;59.236;18.142;2023-01-23T08:32:49;103405.06;;;-5.27;100.00
18987;BME280;9627;59.236;18.142;2023-01-23T08:35:16;103414.47;;;-5.17;100.00
18987;BME280;9627;59.236;18.142;2023-01-23T08:37:43;103418.72;;;-5.13;100.00
18987;BME280;9627;59.236;18.142;2023-01-23T08:40:10;103419.47;;;-5.05;100.00
18987;BME280;9627;59.236;18.142;2023-01-23T08:42:39;103415.06;;;-4.99;100.00
18987;BME280;9627;59.236;18.142;2023-01-23T08:45:07;103406.28;;;-4.87;100.00
18987;BME280;9627;59.236;18.142;2023-01-23T08:47:34;103404.69;;;-4.97;100.00
18987;BME280;9627;59.236;18.142;2023-01-23T08:50:02;103405.41;;;-4.88;100.00
18987;BME280;9627;59.236;18.142;2023-01-23T08:52:30;103407.97;;;-4.86;100.00
18987;BME280;9627;59.236;18.142;2023-01-23T08:54:58;103411.47;;;-4.87;100.00
18987;BME280;9627;59.236;18.142;2023-01-23T08:57:25;103413.16;;;-4.86;100.00
18987;BME280;9627;59.236;18.142;2023-01-23T08:59:54;103416.59;;;-4.84;100.00
18987;BME280;9627;59.236;18.142;2023-01-23T09:02:22;103415.63;;;-4.76;100.00
18987;BME280;9627;59.236;18.142;2023-01-23T09:04:49;103416.56;;;-4.81;100.00
18987;BME280;9627;59.236;18.142;2023-01-23T09:07:16;103411.28;;;-4.77;100.00
18987;BME280;9627;59.236;18.142;2023-01-23T09:09:43;103414.88;;;-4.85;100.00
18987;BME280;9627;59.236;18.142;2023-01-23T09:12:10;103410.41;;;-4.74;100.00
18987;BME280;9627;59.236;18.142;2023-01-23T09:14:37;103409.75;;;-4.88;100.00
18987;BME280;9627;59.236;18.142;2023-01-23T09:17:06;103411.59;;;-4.99;100.00
18987;BME280;9627;59.236;18.142;2023-01-23T09:19:33;103421.13;;;-5.01;100.00
18987;BME280;9627;59.236;18.142;2023-01-23T09:22:00;103412.47;;;-4.99;100.00
18987;BME280;9627;59.236;18.142;2023-01-23T09:24:28;103411.69;;;-5.05;100.00
18987;BME280;9627;59.236;18.142;2023-01-23T09:26:55;103411.50;;;-4.92;100.00
18987;BME280;9627;59.236;18.142;2023-01-23T09:29:21;103401.16;;;-4.90;100.00
18987;BME280;9627;59.236;18.142;2023-01-23T09:31:48;103401.91;;;-4.84;100.00
18987;BME280;9627;59.236;18.142;2023-01-23T09:34:17;103400.88;;;-4.72;100.00
18987;BME280;9627;59.236;18.142;2023-01-23T09:36:44;103381.97;;;-4.79;100.00
18987;BME280;9627;59.236;18.142;2023-01-23T09:39:11;103392.63;;;-5.00;100.00
18987;BME280;9627;59.236;18.142;2023-01-23T09:41:38;103386.31;;;-4.81;100.00
18987;BME280;9627;59.236;18.142;2023-01-23T09:44:06;103392.34;;;-4.80;100.00
18987;BME280;9627;59.236;18.142;2023-01-23T09:46:37;103396.31;;;-4.56;100.00
18987;BME280;9627;59.236;18.142;2023-01-23T09:49:08;103387.75;;;-4.61;100.00
18987;BME280;9627;59.236;18.142;2023-01-23T09:54:36;103386.06;;;-4.64;100.00
18987;BME280;9627;59.236;18.142;2023-01-23T09:57:12;103379.03;;;-4.57;100.00
18987;BME280;9627;59.236;18.142;2023-01-23T09:59:40;103382.63;;;-4.66;100.00
18987;BME280;9627;59.236;18.142;2023-01-23T10:02:12;103379.34;;;-4.77;100.00
18987;BME280;9627;59.236;18.142;2023-01-23T10:04:40;103366.28;;;-4.69;100.00
18987;BME280;9627;59.236;18.142;2023-01-23T10:07:19;103367.66;;;-4.49;100.00
18987;BME280;9627;59.236;18.142;2023-01-23T10:09:56;103363.16;;;-4.38;100.00
18987;BME280;9627;59.236;18.142;2023-01-23T10:12:30;103364.94;;;-4.41;100.00
18987;BME280;9627;59.236;18.142;2023-01-23T10:15:05;103364.00;;;-4.36;100.00
18987;BME280;9627;59.236;18.142;2023-01-23T10:17:36;103350.22;;;-4.39;100.00
18987;BME280;9627;59.236;18.142;2023-01-23T10:20:16;103353.44;;;-4.27;100.00
18987;BME280;9627;59.236;18.142;2023-01-23T10:22:50;103354.16;;;-4.16;100.00
18987;BME280;9627;59.236;18.142;2023-01-23T10:25:23;103345.22;;;-4.01;100.00
18987;BME280;9627;59.236;18.142;2023-01-23T10:27:54;103333.25;;;-4.08;100.00
18987;BME280;9627;59.236;18.142;2023-01-23T10:30:25;103329.44;;;-3.91;100.00
18987;BME280;9627;59.236;18.142;2023-01-23T10:32:55;103300.28;;;-4.03;100.00
18987;BME280;9627;59.236;18.142;2023-01-23T10:35:23;103317.28;;;-3.87;100.00
18987;BME280;9627;59.236;18.142;2023-01-23T10:37:53;103323.84;;;-4.14;100.00
18987;BME280;9627;59.236;18.142;2023-01-23T10:40:23;103339.47;;;-4.68;100.00
18987;BME280;9627;59.236;18.142;2023-01-23T10:43:08;103338.66;;;-4.72;100.00
18987;BME280;9627;59.236;18.142;2023-01-23T10:45:36;103343.47;;;-4.49;100.00
18987;BME280;9627;59.236;18.142;2023-01-23T10:48:04;103336.59;;;-4.50;100.00
18987;BME280;9627;59.236;18.142;2023-01-23T10:50:53;103345.50;;;-4.68;100.00
18987;BME280;9627;59.236;18.142;2023-01-23T10:53:20;103338.50;;;-4.63;100.00
18987;BME280;9627;59.236;18.142;2023-01-23T10:55:49;103343.81;;;-4.69;100.00
18987;BME280;9627;59.236;18.142;2023-01-23T10:58:25;103339.69;;;-4.81;100.00
18987;BME280;9627;59.236;18.142;2023-01-23T11:00:53;103333.59;;;-4.80;100.00
18987;BME280;9627;59.236;18.142;2023-01-23T11:03:25;103331.78;;;-4.73;100.00
18987;BME280;9627;59.236;18.142;2023-01-23T11:05:55;103329.03;;;-4.64;100.00
18987;BME280;9627;59.236;18.142;2023-01-23T11:08:23;103323.94;;;-4.70;100.00
18987;BME280;9627;59.236;18.142;2023-01-23T11:10:51;103321.34;;;-4.70;100.00
18987;BME280;9627;59.236;18.142;2023-01-23T11:13:24;103325.53;;;-4.61;100.00
18987;BME280;9627;59.236;18.142;2023-01-23T11:15:51;103324.59;;;-4.56;100.00
18987;BME280;9627;59.236;18.142;2023-01-23T11:21:05;103312.84;;;-4.28;100.00
18987;BME280;9627;59.236;18.142;2023-01-23T11:23:32;103314.00;;;-4.44;100.00
18987;BME280;9627;59.236;18.142;2023-01-23T11:25:59;103304.34;;;-4.36;100.00
18987;BME280;9627;59.236;18.142;2023-01-23T11:28:28;103308.41;;;-4.23;100.00
18987;BME280;9627;59.236;18.142;2023-01-23T11:31:00;103305.81;;;-4.23;100.00
18987;BME280;9627;59.236;18.142;2023-01-23T11:33:38;103300.34;;;-4.06;100.00
18987;BME280;9627;59.236;18.142;2023-01-23T11:36:11;103286.00;;;-4.25;100.00
18987;BME280;9627;59.236;18.142;2023-01-23T11:38:45;103282.75;;;-4.38;100.00
18987;BME280;9627;59.236;18.142;2023-01-23T11:41:13;103277.38;;;-4.26;100.00
18987;BME280;9627;59.236;18.142;2023-01-23T11:43:40;103266.25;;;-4.34;100.00
18987;BME280;9627;59.236;18.142;2023-01-23T11:46:14;103270.31;;;-4.19;100.00
18987;BME280;9627;59.236;18.142;2023-01-23T11:48:50;103270.34;;;-4.21;100.00
18987;BME280;9627;59.236;18.142;2023-01-23T11:51:23;103258.72;;;-4.02;100.00
18987;BME280;9627;59.236;18.142;2023-01-23T11:53:56;103267.72;;;-3.77;100.00
18987;BME280;9627;59.236;18.142;2023-01-23T11:59:28;103259.31;;;-3.88;100.00
18987;BME280;9627;59.236;18.142;2023-01-23T12:02:02;103261.28;;;-4.00;100.00
18987;BME280;9627;59.236;18.142;2023-01-23T12:04:39;103268.09;;;-3.95;100.00
18987;BME280;9627;59.236;18.142;2023-01-23T12:07:16;103261.19;;;-3.96;100.00
18987;BME280;9627;59.236;18.142;2023-01-23T12:09:57;103252.72;;;-4.04;100.00
18987;BME280;9627;59.236;18.142;2023-01-23T12:12:32;103242.28;;;-4.02;100.00
18987;BME280;9627;59.236;18.142;2023-01-23T12:15:07;103239.91;;;-4.13;100.00
18987;BME280;9627;59.236;18.142;2023-01-23T12:17:41;103246.91;;;-4.16;100.00
18987;BME280;9627;59.236;18.142;2023-01-23T12:22:58;103241.78;;;-4.19;100.00
18987;BME280;9627;59.236;18.142;2023-01-23T12:25:30;103229.78;;;-4.23;100.00
18987;BME280;9627;59.236;18.142;2023-01-23T12:28:00;103233.75;;;-4.07;100.00
18987;BME280;9627;59.236;18.142;2023-01-23T12:33:19;103232.59;;;-3.93;100.00
18987;BME280;9627;59.236;18.142;2023-01-23T12:36:04;103238.00;;;-4.03;100.00
18987;BME280;9627;59.236;18.142;2023-01-23T12:38:38;103239.09;;;-4.15;100.00
18987;BME280;9627;59.236;18.142;2023-01-23T12:41:11;103235.59;;;-4.12;100.00
18987;BME280;9627;59.236;18.142;2023-01-23T12:43:43;103245.03;;;-4.08;100.00
18987;BME280;9627;59.236;18.142;2023-01-23T12:46:13;103230.63;;;-4.24;100.00
18987;BME280;9627;59.236;18.142;2023-01-23T12:48:42;103234.34;;;-4.37;100.00
18987;BME280;9627;59.236;18.142;2023-01-23T12:51:13;103229.09;;;-4.33;100.00
18987;BME280;9627;59.236;18.142;2023-01-23T12:53:43;103231.84;;;-4.42;100.00
18987;BME280;9627;59.236;18.142;2023-01-23T12:56:12;103221.41;;;-4.40;100.00
18987;BME280;9627;59.236;18.142;2023-01-23T12:58:41;103210.13;;;-4.36;100.00
18987;BME280;9627;59.236;18.142;2023-01-23T13:01:13;103205.00;;;-4.39;100.00
18987;BME280;9627;59.236;18.142;2023-01-23T13:03:44;103206.81;;;-4.43;100.00
18987;BME280;9627;59.236;18.142;2023-01-23T13:06:19;103218.56;;;-4.27;100.00
18987;BME280;9627;59.236;18.142;2023-01-23T13:08:54;103216.56;;;-4.13;100.00
18987;BME280;9627;59.236;18.142;2023-01-23T13:11:24;103215.00;;;-4.20;100.00